Time;durP1;ratioP1;P1;durP2;ratioP2;P2;SDS_P1;SDS_P2;PMS_P1;PMS_P2;Temp;Humidity;BMP_temperature;BMP_pressure;BME280_temperature;BME280_humidity;BME280_pressure;Samples;Min_cycle;Max_cycle;Signal;HPM_P1;HPM_P2
2021/08/15 00:01:52;;;;;;;11.38;7.70;;;;;;;21.61;71.50;101645.60;1706508;83;21485;-77
2021/08/15 00:04:19;;;;;;;14.03;9.30;;;;;;;21.59;71.28;101644.09;1706890;83;21125;-76
2021/08/15 00:06:47;;;;;;;16.62;10.10;;;;;;;21.55;71.65;101639.59;1706774;84;21030;-75
2021/08/15 00:09:14;;;;;;;15.10;9.50;;;;;;;21.52;71.87;101645.66;1706784;84;20935;-74
2021/08/15 00:11:41;;;;;;;16.45;10.18;;;;;;;21.47;72.12;101636.05;1706629;84;21059;-77
2021/08/15 00:14:09;;;;;;;12.98;8.83;;;;;;;21.42;72.40;101639.59;1706702;83;20998;-77
2021/08/15 00:16:37;;;;;;;13.45;8.38;;;;;;;21.37;72.57;101639.22;1706864;83;20982;-82
2021/08/15 00:19:05;;;;;;;12.40;8.55;;;;;;;21.35;72.72;101638.03;1706949;83;21006;-76
2021/08/15 00:21:37;;;;;;;12.10;7.62;;;;;;;21.33;72.81;101634.72;1706604;84;20982;-76
2021/08/15 00:24:05;;;;;;;14.33;7.87;;;;;;;21.33;72.97;101636.52;1706936;83;21454;-76
2021/08/15 00:26:32;;;;;;;12.58;7.45;;;;;;;21.28;73.00;101627.74;1706485;83;21023;-77
2021/08/15 00:29:01;;;;;;;12.75;7.47;;;;;;;21.25;73.16;101625.36;1706755;83;20959;-76
2021/08/15 00:31:29;;;;;;;12.43;7.70;;;;;;;21.21;73.32;101621.38;1706727;84;20959;-77
2021/08/15 00:33:56;;;;;;;10.53;6.72;;;;;;;21.20;73.42;101624.15;1706663;84;20927;-77
2021/08/15 00:36:23;;;;;;;11.08;6.78;;;;;;;21.18;73.57;101623.48;1706555;84;20888;-81
2021/08/15 00:38:49;;;;;;;14.40;6.92;;;;;;;21.16;73.70;101628.05;1706763;84;20939;-77
2021/08/15 00:41:16;;;;;;;10.48;7.40;;;;;;;21.14;73.91;101623.42;1706650;84;21119;-77
2021/08/15 00:43:43;;;;;;;9.98;6.47;;;;;;;21.12;74.02;101624.06;1706708;84;20939;-77
2021/08/15 00:46:12;;;;;;;12.68;6.85;;;;;;;21.08;74.23;101620.84;1706666;84;20953;-74
2021/08/15 00:48:39;;;;;;;12.23;5.75;;;;;;;21.07;74.37;101622.66;1706777;84;20978;-76
2021/08/15 00:51:06;;;;;;;10.80;6.10;;;;;;;21.03;74.56;101616.48;1714232;83;21370;-74
2021/08/15 00:53:36;;;;;;;16.57;6.67;;;;;;;20.99;74.71;101612.00;1731423;83;21143;-73
2021/08/15 00:56:04;;;;;;;7.47;6.47;;;;;;;20.94;74.88;101616.87;1731355;82;20939;-76
2021/08/15 00:58:39;;;;;;;9.13;6.25;;;;;;;20.87;75.07;101616.27;1731377;83;20963;-74
2021/08/15 01:01:10;;;;;;;9.83;6.10;;;;;;;20.79;75.25;101618.80;1731372;83;21018;-73
2021/08/15 01:03:38;;;;;;;10.05;6.03;;;;;;;20.69;75.40;101613.56;1706203;83;20944;-75
2021/08/15 01:06:05;;;;;;;9.08;5.92;;;;;;;20.65;75.49;101613.48;1723981;83;21120;-75
2021/08/15 01:08:35;;;;;;;9.58;5.97;;;;;;;20.63;75.59;101619.89;1706097;84;20996;-76
2021/08/15 01:11:05;;;;;;;9.37;5.70;;;;;;;20.63;75.65;101620.73;1724121;83;21403;-77
2021/08/15 01:13:36;;;;;;;10.82;6.58;;;;;;;20.62;75.71;101619.53;1706187;84;20937;-76
2021/08/15 01:16:08;;;;;;;10.70;5.95;;;;;;;20.60;75.84;101618.38;1723802;83;20937;-75
2021/08/15 01:18:37;;;;;;;13.30;5.83;;;;;;;20.59;76.08;101615.38;1706234;84;21133;-75
2021/08/15 01:21:08;;;;;;;11.38;6.00;;;;;;;20.58;76.33;101619.02;1723812;83;20892;-74
2021/08/15 01:23:37;;;;;;;11.20;5.80;;;;;;;20.54;77.26;101615.83;1705133;84;21680;-76
2021/08/15 01:26:05;;;;;;;11.93;6.37;;;;;;;20.49;77.67;101615.89;1723716;83;20963;-76
2021/08/15 01:28:31;;;;;;;13.08;6.42;;;;;;;20.45;78.10;101616.66;1706212;84;21008;-76
2021/08/15 01:30:58;;;;;;;8.98;6.58;;;;;;;20.42;78.33;101611.67;1723775;83;21160;-77
2021/08/15 01:33:30;;;;;;;7.42;5.50;;;;;;;20.39;78.67;101613.78;1706075;84;21023;-75
2021/08/15 01:35:57;;;;;;;10.15;5.50;;;;;;;20.37;78.88;101613.91;1723348;83;20995;-74
2021/08/15 01:38:27;;;;;;;13.10;5.83;;;;;;;20.37;79.14;101615.23;1705984;84;20940;-76
2021/08/15 01:40:53;;;;;;;11.28;6.28;;;;;;;20.34;79.49;101614.67;1723628;83;20947;-76
2021/08/15 01:43:20;;;;;;;7.12;5.60;;;;;;;20.28;79.85;101607.33;1706066;84;21172;-76
2021/08/15 01:45:48;;;;;;;7.65;5.05;;;;;;;20.24;80.24;101613.34;1723724;83;20961;-77
2021/08/15 01:48:15;;;;;;;7.97;5.90;;;;;;;20.21;80.52;101615.41;1706223;84;21060;-77
2021/08/15 01:50:41;;;;;;;10.50;5.92;;;;;;;20.17;80.70;101617.98;1723778;83;21014;-76
2021/08/15 01:53:15;;;;;;;9.38;5.90;;;;;;;20.14;80.82;101616.94;1706185;84;21595;-75
2021/08/15 01:55:42;;;;;;;8.65;5.87;;;;;;;20.12;80.99;101611.83;1723161;83;21727;-76
2021/08/15 01:58:10;;;;;;;9.83;5.40;;;;;;;20.07;81.17;101612.71;1706031;84;21530;-75
2021/08/15 02:00:40;;;;;;;7.50;6.42;;;;;;;20.03;81.40;101608.71;1723737;83;21441;-76
2021/08/15 02:03:09;;;;;;;8.33;6.60;;;;;;;19.97;81.62;101614.55;1705583;82;21055;-75
2021/08/15 02:05:39;;;;;;;12.00;6.55;;;;;;;19.91;81.82;101622.48;1723736;83;21030;-75
2021/08/15 02:08:06;;;;;;;10.18;6.28;;;;;;;19.82;82.03;101616.73;1706074;84;22288;-76
2021/08/15 02:10:35;;;;;;;11.03;6.95;;;;;;;19.75;82.31;101619.56;1703178;83;20920;-74
2021/08/15 02:13:04;;;;;;;13.93;7.20;;;;;;;19.71;82.50;101622.15;1706101;84;21012;-75
2021/08/15 02:15:31;;;;;;;11.38;7.45;;;;;;;19.67;82.63;101616.80;1723763;83;20963;-75
2021/08/15 02:18:00;;;;;;;11.93;6.95;;;;;;;19.65;82.59;101616.11;1706138;84;20989;-76
2021/08/15 02:20:31;;;;;;;14.50;7.47;;;;;;;19.67;82.52;101608.90;1723674;83;20994;-76
2021/08/15 02:22:59;;;;;;;14.55;7.95;;;;;;;19.69;82.31;101614.05;1706070;84;22353;-76
2021/08/15 02:25:25;;;;;;;14.07;7.50;;;;;;;19.67;82.17;101614.64;1723769;83;20864;-75
2021/08/15 02:27:52;;;;;;;10.28;7.62;;;;;;;19.64;81.93;101614.92;1706051;84;20957;-75
2021/08/15 02:30:23;;;;;;;11.95;7.42;;;;;;;19.60;81.71;101613.04;1723811;83;20995;-75
2021/08/15 02:32:49;;;;;;;13.68;8.13;;;;;;;19.57;81.52;101611.16;1706177;84;21179;-74
2021/08/15 02:35:17;;;;;;;13.13;8.00;;;;;;;19.55;81.50;101607.36;1723589;83;20864;-75
2021/08/15 02:37:47;;;;;;;14.20;8.98;;;;;;;19.53;81.37;101605.33;1706180;84;21474;-78
2021/08/15 02:40:16;;;;;;;14.47;8.85;;;;;;;19.49;81.37;101606.11;1723804;83;21003;-75
2021/08/15 02:42:45;;;;;;;10.80;7.90;;;;;;;19.46;81.33;101609.49;1706019;84;20972;-76
2021/08/15 02:45:15;;;;;;;12.15;8.45;;;;;;;19.42;81.31;101607.61;1723718;83;21122;-75
2021/08/15 02:47:41;;;;;;;16.20;7.78;;;;;;;19.39;81.31;101603.06;1706036;84;20953;-76
2021/08/15 02:50:10;;;;;;;12.47;7.60;;;;;;;19.42;81.34;101612.87;1723731;83;20959;-76
2021/08/15 02:52:38;;;;;;;14.33;8.35;;;;;;;19.45;81.27;101606.03;1723841;83;21447;-76
2021/08/15 02:55:07;;;;;;;12.50;8.45;;;;;;;19.50;81.04;101612.19;1723822;83;21063;-77
2021/08/15 02:57:34;;;;;;;12.95;8.28;;;;;;;19.51;80.73;101607.28;1723729;83;21438;-77
2021/08/15 03:00:06;;;;;;;14.23;7.92;;;;;;;19.52;80.51;101610.27;1723681;83;20995;-76
2021/08/15 03:02:33;;;;;;;15.85;9.23;;;;;;;19.52;80.27;101613.73;1723812;83;20970;-76
2021/08/15 03:05:00;;;;;;;16.62;8.08;;;;;;;19.53;80.12;101610.11;1724159;83;20947;-77
2021/08/15 03:07:26;;;;;;;12.75;7.85;;;;;;;19.54;79.89;101615.73;1724308;83;21447;-76
2021/08/15 03:09:53;;;;;;;15.95;8.03;;;;;;;19.56;79.75;101610.32;1723891;83;21150;-76
2021/08/15 03:12:20;;;;;;;12.13;8.33;;;;;;;19.58;79.55;101611.03;1705865;84;20957;-75
2021/08/15 03:14:48;;;;;;;14.55;8.25;;;;;;;19.58;79.13;101612.83;1723974;83;21494;-73
2021/08/15 03:17:14;;;;;;;13.95;8.08;;;;;;;19.54;78.69;101612.27;1706137;84;20933;-75
2021/08/15 03:19:42;;;;;;;13.55;8.38;;;;;;;19.49;78.50;101623.23;1723823;83;20904;-76
2021/08/15 03:22:09;;;;;;;15.88;8.73;;;;;;;19.42;78.42;101615.52;1683841;84;21586;-74
2021/08/15 03:24:36;;;;;;;13.28;8.93;;;;;;;19.35;78.54;101614.83;1723839;83;20900;-77
2021/08/15 03:27:04;;;;;;;14.07;8.70;;;;;;;19.32;78.67;101622.99;1706111;84;21455;-76
2021/08/15 03:29:32;;;;;;;14.23;8.85;;;;;;;19.26;78.80;101619.10;1724374;83;21067;-75
2021/08/15 03:31:59;;;;;;;15.68;8.23;;;;;;;19.22;79.00;101620.80;1706225;84;21003;-75
2021/08/15 03:34:26;;;;;;;14.18;9.43;;;;;;;19.20;79.09;101615.70;1724146;83;21115;-76
2021/08/15 03:36:53;;;;;;;13.62;8.23;;;;;;;19.23;79.10;101622.48;1706575;84;20861;-75
2021/08/15 03:39:21;;;;;;;11.73;7.87;;;;;;;19.24;79.07;101624.96;1724355;83;20948;-77
2021/08/15 03:41:56;;;;;;;11.38;7.85;;;;;;;19.28;78.98;101618.95;1706163;84;20980;-75
2021/08/15 03:44:20;;;;;;;13.08;8.38;;;;;;;19.30;78.80;101624.45;1731282;82;20911;-76
2021/08/15 03:46:47;;;;;;;14.33;8.25;;;;;;;19.32;78.60;101617.25;1731995;83;21994;-75
2021/08/15 03:49:14;;;;;;;12.45;7.85;;;;;;;19.35;78.41;101609.08;1731788;82;20884;-76
2021/08/15 03:51:40;;;;;;;13.72;9.38;;;;;;;19.38;78.33;101617.19;1732954;82;21006;-75
2021/08/15 03:54:07;;;;;;;17.17;9.03;;;;;;;19.41;78.15;101613.00;1700988;84;21565;-75
2021/08/15 03:56:35;;;;;;;16.55;10.00;;;;;;;19.41;78.04;101619.10;1720562;82;20948;-76
2021/08/15 03:59:01;;;;;;;16.37;9.70;;;;;;;19.42;77.99;101618.14;1720563;83;21561;-76
2021/08/15 04:01:28;;;;;;;12.60;9.35;;;;;;;19.43;77.89;101615.84;1701274;84;21016;-76
2021/08/15 04:03:55;;;;;;;16.55;9.23;;;;;;;19.45;77.84;101617.03;1720949;83;20912;-76
2021/08/15 04:06:22;;;;;;;12.80;8.18;;;;;;;19.48;77.77;101618.91;1700650;84;20905;-77
2021/08/15 04:08:51;;;;;;;16.45;8.70;;;;;;;19.52;77.77;101616.84;1720761;83;21007;-77
2021/08/15 04:11:19;;;;;;;13.78;8.35;;;;;;;19.58;77.59;101618.09;1720445;83;20971;-78
2021/08/15 04:13:47;;;;;;;15.65;7.90;;;;;;;19.64;77.43;101613.60;1700603;84;21634;-76
2021/08/15 04:16:14;;;;;;;16.37;7.35;;;;;;;19.70;77.32;101611.25;1720514;83;20972;-77
2021/08/15 04:18:42;;;;;;;19.42;7.85;;;;;;;19.73;77.05;101613.61;1733790;82;20923;-77
2021/08/15 04:21:08;;;;;;;11.60;7.00;;;;;;;19.79;77.01;101613.55;1734045;82;21639;-78
2021/08/15 04:23:35;;;;;;;9.73;6.70;;;;;;;19.83;76.98;101618.41;1733598;82;21191;-78
2021/08/15 04:26:02;;;;;;;11.65;6.45;;;;;;;19.89;76.91;101613.06;1700923;84;20929;-77
2021/08/15 04:28:30;;;;;;;10.58;6.70;;;;;;;19.95;77.00;101615.98;1720549;83;21066;-77
2021/08/15 04:30:57;;;;;;;9.95;6.03;;;;;;;20.01;76.83;101618.54;1700807;84;21455;-77
2021/08/15 04:33:26;;;;;;;13.80;6.83;;;;;;;20.07;76.80;101615.34;1720383;83;20888;-76
2021/08/15 04:35:53;;;;;;;12.70;6.05;;;;;;;20.14;76.61;101620.89;1720610;83;21037;-78
2021/08/15 04:38:20;;;;;;;8.95;6.20;;;;;;;20.20;76.38;101621.17;1720399;83;21532;-77
2021/08/15 04:40:48;;;;;;;10.55;6.22;;;;;;;20.27;76.12;101614.88;1720471;83;21459;-77
2021/08/15 04:43:14;;;;;;;10.65;5.28;;;;;;;20.33;75.85;101617.79;1733346;82;20963;-76
2021/08/15 04:45:42;;;;;;;14.15;6.00;;;;;;;20.39;75.33;101621.17;1733569;82;20932;-77
2021/08/15 04:48:08;;;;;;;57.00;8.15;;;;;;;20.46;75.02;101618.81;1733332;82;21121;-78
2021/08/15 04:50:35;;;;;;;12.37;6.28;;;;;;;20.52;74.89;101616.44;1733360;82;20951;-77
2021/08/15 04:53:02;;;;;;;11.05;5.87;;;;;;;20.57;74.82;101612.07;1700648;84;21568;-76
2021/08/15 04:55:28;;;;;;;9.10;6.28;;;;;;;20.63;74.54;101618.09;1720545;83;21006;-75
2021/08/15 04:57:55;;;;;;;12.05;6.05;;;;;;;20.68;73.60;101614.52;1700656;84;20941;-76
2021/08/15 05:00:22;;;;;;;6.78;5.87;;;;;;;20.76;72.99;101615.13;1720408;83;21631;-75
2021/08/15 05:02:48;;;;;;;9.05;6.62;;;;;;;20.83;72.60;101622.34;1720417;83;20967;-75
2021/08/15 05:05:15;;;;;;;7.15;5.70;;;;;;;20.90;72.38;101618.12;1733514;82;20868;-74
2021/08/15 05:07:42;;;;;;;10.32;6.00;;;;;;;20.96;72.55;101618.06;1733663;82;21525;-74
2021/08/15 05:10:10;;;;;;;11.35;5.60;;;;;;;21.04;72.08;101619.47;1733420;82;21018;-78
2021/08/15 05:12:36;;;;;;;11.65;5.30;;;;;;;21.09;72.12;101618.08;1733385;82;21123;-79
2021/08/15 05:15:04;;;;;;;14.23;5.53;;;;;;;21.15;72.08;101614.05;1700616;84;20909;-81
2021/08/15 05:17:32;;;;;;;10.13;5.55;;;;;;;21.22;72.23;101617.73;1720465;83;21486;-77
2021/08/15 05:20:01;;;;;;;8.33;6.10;;;;;;;21.30;71.78;101609.09;1720432;83;20999;-77
2021/08/15 05:22:27;;;;;;;11.48;5.25;;;;;;;21.41;71.30;101614.99;1700584;84;20933;-83
2021/08/15 05:24:54;;;;;;;9.70;5.28;;;;;;;21.49;71.09;101616.42;1720404;83;21163;-76
2021/08/15 05:27:21;;;;;;;9.08;5.75;;;;;;;21.58;70.42;101621.29;1720317;83;21043;-80
2021/08/15 05:29:48;;;;;;;8.55;5.95;;;;;;;21.69;70.09;101618.94;1720461;83;21026;-75
2021/08/15 05:32:14;;;;;;;10.75;5.92;;;;;;;21.75;69.60;101620.48;1733567;82;20879;-79
2021/08/15 05:34:41;;;;;;;7.20;5.37;;;;;;;21.86;68.01;101622.89;1733532;82;21695;-78
2021/08/15 05:37:08;;;;;;;7.22;5.03;;;;;;;21.96;67.63;101619.72;1733426;82;21123;-82
2021/08/15 05:39:34;;;;;;;10.13;5.67;;;;;;;22.05;67.15;101619.29;1733473;82;21018;-87
2021/08/15 05:42:03;;;;;;;8.93;5.42;;;;;;;22.14;66.81;101617.88;1700623;84;21051;-82
2021/08/15 05:44:29;;;;;;;9.95;6.00;;;;;;;22.23;66.47;101621.45;1720460;83;21006;-81
2021/08/15 05:46:58;;;;;;;10.82;6.00;;;;;;;22.31;66.04;101620.17;1720278;83;21018;-82
2021/08/15 05:49:25;;;;;;;14.50;6.90;;;;;;;22.41;65.82;101625.37;1720619;83;21171;-75
2021/08/15 05:51:52;;;;;;;18.60;7.30;;;;;;;22.48;65.24;101617.99;1733240;82;21497;-79
2021/08/15 05:54:19;;;;;;;7.00;5.70;;;;;;;22.59;65.32;101620.36;1733444;82;20912;-79
2021/08/15 05:56:47;;;;;;;6.75;5.53;;;;;;;22.70;64.73;101618.48;1733429;82;20911;-82
2021/08/15 05:59:15;;;;;;;5.72;4.60;;;;;;;22.78;64.18;101614.09;1733434;82;20931;-76
2021/08/15 06:01:42;;;;;;;7.15;4.92;;;;;;;22.91;63.60;101613.13;1733205;82;21169;-77
2021/08/15 06:04:09;;;;;;;5.28;4.00;;;;;;;23.02;63.09;101616.00;1733368;82;20951;-77
2021/08/15 06:06:36;;;;;;;7.78;4.90;;;;;;;23.09;60.64;101613.90;1733258;82;20958;-80
2021/08/15 06:09:03;;;;;;;13.03;5.00;;;;;;;23.24;60.80;101614.59;1733593;82;20919;-81
2021/08/15 06:11:30;;;;;;;8.93;4.35;;;;;;;23.34;59.68;101612.65;1734100;82;20991;-85
2021/08/15 06:13:59;;;;;;;8.25;4.65;;;;;;;23.41;59.25;101611.05;1700754;84;20992;-84
2021/08/15 06:16:27;;;;;;;9.05;4.45;;;;;;;23.46;58.66;101612.22;1720935;82;20999;-74
2021/08/15 06:18:55;;;;;;;5.65;3.92;;;;;;;23.53;58.49;101613.23;1700954;84;20941;-78
2021/08/15 06:21:23;;;;;;;5.20;4.60;;;;;;;23.60;57.21;101608.12;1720573;82;21447;-75
2021/08/15 06:23:50;;;;;;;7.05;4.20;;;;;;;23.68;56.57;101608.95;1722540;83;20955;-78
2021/08/15 06:26:19;;;;;;;6.55;4.37;;;;;;;23.77;56.97;101610.31;1721128;83;21169;-75
2021/08/15 06:28:46;;;;;;;9.83;4.33;;;;;;;23.84;56.82;101607.31;1701509;84;21563;-72
2021/08/15 06:31:13;;;;;;;5.62;4.53;;;;;;;23.89;55.94;101605.02;1721559;83;21500;-82
2021/08/15 06:33:39;;;;;;;6.00;4.10;;;;;;;23.98;55.19;101608.00;1700557;84;21040;-79
2021/08/15 06:36:06;;;;;;;5.15;3.90;;;;;;;24.06;55.14;101608.02;1721242;83;21077;-80
2021/08/15 06:38:33;;;;;;;7.20;3.77;;;;;;;24.14;54.64;101604.05;1701481;84;21065;-73
2021/08/15 06:41:00;;;;;;;5.53;4.35;;;;;;;24.21;53.73;101603.73;1720381;83;20956;-74
2021/08/15 06:43:27;;;;;;;7.60;4.00;;;;;;;24.29;53.33;101608.17;1720339;83;20951;-81
2021/08/15 06:45:54;;;;;;;4.55;3.90;;;;;;;24.35;52.73;101599.55;1700620;84;20957;-78
2021/08/15 06:48:22;;;;;;;8.00;3.80;;;;;;;24.43;52.17;101592.42;1720452;83;20999;-78
2021/08/15 06:50:53;;;;;;;8.45;4.25;;;;;;;24.51;51.22;101599.03;1733575;82;21138;-81
2021/08/15 06:53:21;;;;;;;8.20;4.58;;;;;;;24.59;52.20;101599.52;1709826;82;21019;-78
2021/08/15 06:55:48;;;;;;;6.50;3.67;;;;;;;24.64;52.68;101600.66;1706663;84;21023;-85
2021/08/15 06:58:16;;;;;;;8.90;4.05;;;;;;;24.71;51.99;101597.66;1706975;84;20876;-77
2021/08/15 07:00:43;;;;;;;5.95;4.12;;;;;;;24.79;51.67;101598.64;1706634;84;20884;-80
2021/08/15 07:03:10;;;;;;;6.78;4.58;;;;;;;24.83;51.57;101602.63;1706716;84;21857;-81
2021/08/15 07:05:38;;;;;;;7.00;4.33;;;;;;;24.89;51.05;101601.96;1696318;84;38638;-81
2021/08/15 07:08:05;;;;;;;6.37;4.30;;;;;;;24.94;50.81;101603.59;1706763;84;20999;-81
2021/08/15 07:10:33;;;;;;;7.28;4.60;;;;;;;24.99;51.06;101594.59;1706722;84;21018;-80
2021/08/15 07:13:07;;;;;;;7.03;4.20;;;;;;;25.04;51.41;101597.58;1706351;84;21557;-80
2021/08/15 07:15:35;;;;;;;7.00;4.40;;;;;;;25.09;51.78;101601.86;1706760;83;21154;-79
2021/08/15 07:18:04;;;;;;;11.88;5.37;;;;;;;25.14;51.44;101602.99;1706764;83;21512;-82
2021/08/15 07:20:32;;;;;;;11.78;4.85;;;;;;;25.20;51.24;101597.51;1706731;84;21034;-76
2021/08/15 07:22:58;;;;;;;7.25;4.65;;;;;;;25.28;51.15;101601.44;1706822;84;21022;-77
2021/08/15 07:25:28;;;;;;;8.58;5.35;;;;;;;25.36;51.87;101602.74;1706788;84;20928;-81
2021/08/15 07:27:53;;;;;;;7.47;5.60;;;;;;;25.47;52.30;101597.51;1706935;83;21140;-77
2021/08/15 07:30:20;;;;;;;9.13;5.37;;;;;;;25.56;52.24;101603.16;1706647;84;20907;-75
2021/08/15 07:33:00;;;;;;;6.83;5.37;;;;;;;25.63;51.27;101600.93;1706433;83;21454;-80
2021/08/15 07:35:30;;;;;;;11.10;5.28;;;;;;;25.70;50.87;101603.71;1706850;84;21086;-72
2021/08/15 07:37:57;;;;;;;12.03;5.50;;;;;;;25.74;51.11;101599.20;1706788;84;21585;-85
2021/08/15 07:40:24;;;;;;;9.48;5.35;;;;;;;25.80;51.37;101600.32;1706769;84;21430;-77
2021/08/15 07:42:52;;;;;;;7.67;5.80;;;;;;;25.88;50.47;101601.58;1707158;84;20995;-78
2021/08/15 07:45:22;;;;;;;9.50;5.95;;;;;;;25.98;49.83;101603.99;1706708;83;21580;-83
2021/08/15 07:47:49;;;;;;;9.90;5.70;;;;;;;25.99;49.26;101594.52;1697185;84;20991;-75
2021/08/15 07:50:17;;;;;;;12.55;5.83;;;;;;;26.03;49.38;101596.33;1706547;83;21410;-77
2021/08/15 07:52:44;;;;;;;7.33;5.42;;;;;;;26.08;48.61;101589.45;1688008;84;21154;-79
2021/08/15 07:55:11;;;;;;;9.35;6.22;;;;;;;26.13;48.47;101586.27;1683058;85;20923;-87
2021/08/15 07:57:38;;;;;;;7.47;5.47;;;;;;;26.19;48.03;101585.57;1683082;85;20944;-79
2021/08/15 08:00:07;;;;;;;8.83;5.35;;;;;;;26.28;47.64;101583.16;1683215;85;20952;-78
2021/08/15 08:02:34;;;;;;;10.15;5.10;;;;;;;26.33;47.47;101583.92;1683047;85;20976;-81
2021/08/15 08:05:01;;;;;;;7.65;5.70;;;;;;;26.39;47.75;101585.89;1683116;85;21144;-74
2021/08/15 08:07:28;;;;;;;9.55;5.83;;;;;;;26.45;47.18;101583.82;1682922;85;21047;-81
2021/08/15 08:09:55;;;;;;;7.90;5.80;;;;;;;26.51;46.10;101579.09;1683298;85;20949;-80
2021/08/15 08:12:21;;;;;;;8.10;6.10;;;;;;;26.55;46.33;101581.19;1683154;85;20979;-77
2021/08/15 08:14:48;;;;;;;9.08;6.72;;;;;;;26.63;46.05;101576.30;1683117;85;21018;-77
2021/08/15 08:17:15;;;;;;;9.25;6.22;;;;;;;26.71;45.64;101578.85;1683053;85;21166;-79
2021/08/15 08:19:43;;;;;;;10.98;6.37;;;;;;;26.78;44.88;101578.44;1657483;85;21039;-77
2021/08/15 08:22:11;;;;;;;9.38;6.05;;;;;;;26.85;45.03;101581.23;1683061;85;20940;-81
2021/08/15 08:24:37;;;;;;;11.57;6.25;;;;;;;26.90;43.95;101578.85;1683243;85;21467;-78
2021/08/15 08:27:04;;;;;;;8.20;6.08;;;;;;;26.89;44.03;101579.85;1683278;85;20888;-80
2021/08/15 08:29:32;;;;;;;9.00;5.53;;;;;;;26.96;44.48;101577.61;1683139;85;21979;-77
2021/08/15 08:31:58;;;;;;;9.95;6.33;;;;;;;27.03;43.34;101574.49;1657275;85;21014;-81
2021/08/15 08:34:24;;;;;;;10.05;6.20;;;;;;;27.07;42.78;101573.11;1683310;85;20891;-74
2021/08/15 08:36:51;;;;;;;8.75;5.85;;;;;;;27.14;42.10;101572.70;1683257;85;21525;-77
2021/08/15 08:39:19;;;;;;;6.90;4.95;;;;;;;27.13;42.30;101574.20;1683058;85;20999;-79
2021/08/15 08:41:45;;;;;;;7.72;5.25;;;;;;;27.06;42.23;101574.12;1683364;85;21136;-79
2021/08/15 08:44:12;;;;;;;7.75;5.75;;;;;;;27.01;43.21;101571.70;1657175;85;20958;-80
2021/08/15 08:46:39;;;;;;;8.13;5.70;;;;;;;27.05;42.42;101570.33;1683565;85;20900;-77
2021/08/15 08:49:06;;;;;;;9.08;5.78;;;;;;;27.10;42.04;101575.91;1683952;85;21066;-78
2021/08/15 08:51:33;;;;;;;8.00;6.10;;;;;;;27.17;41.43;101567.48;1658355;85;20952;-79
2021/08/15 08:54:02;;;;;;;9.23;6.35;;;;;;;27.22;41.27;101566.41;1657509;85;21983;-77
2021/08/15 08:56:28;;;;;;;9.93;6.28;;;;;;;27.26;40.51;101559.70;1683023;85;20983;-75
2021/08/15 08:58:55;;;;;;;13.65;6.37;;;;;;;27.22;40.92;101564.58;1683595;85;20956;-75
2021/08/15 09:01:22;;;;;;;12.33;6.05;;;;;;;27.25;41.43;101564.73;1683465;85;20936;-79
2021/08/15 09:03:49;;;;;;;12.55;6.20;;;;;;;27.24;41.06;101551.91;1683434;85;21522;-82
2021/08/15 09:06:24;;;;;;;7.78;6.10;;;;;;;27.28;40.09;101557.16;1684004;85;21181;-80
2021/08/15 09:08:51;;;;;;;8.25;5.87;;;;;;;27.34;40.39;101544.94;1683828;85;21058;-72
2021/08/15 09:11:22;;;;;;;8.85;6.40;;;;;;;27.46;39.55;101545.28;1683549;85;21058;-80
2021/08/15 09:14:11;;;;;;;8.23;5.90;;;;;;;27.57;40.12;101541.59;1683456;85;20939;-76
2021/08/15 09:17:05;;;;;;;9.50;5.87;;;;;;;27.66;38.80;101536.97;1683533;85;20940;-82
2021/08/15 09:19:50;;;;;;;8.80;5.70;;;;;;;27.66;39.37;101539.14;1683306;85;21136;-78
2021/08/15 09:22:29;;;;;;;9.38;6.47;;;;;;;27.68;39.04;101538.42;1683121;85;20919;-84
2021/08/15 09:25:10;;;;;;;9.20;6.25;;;;;;;27.71;38.88;101523.88;1683302;85;20931;-73
2021/08/15 09:27:50;;;;;;;8.80;6.05;;;;;;;27.81;39.45;101521.20;1683508;85;21069;-78
2021/08/15 09:30:26;;;;;;;7.67;6.15;;;;;;;27.95;38.66;101530.14;1683277;85;20933;-77
2021/08/15 09:33:07;;;;;;;9.78;7.20;;;;;;;27.96;38.35;101522.44;1683203;85;21090;-78
2021/08/15 09:35:40;;;;;;;9.63;6.45;;;;;;;27.96;38.67;101522.44;1683197;85;20904;-76
2021/08/15 09:38:14;;;;;;;10.60;6.75;;;;;;;28.06;38.47;101516.28;1683352;85;21030;-78
2021/08/15 09:40:47;;;;;;;7.97;5.78;;;;;;;28.18;38.20;101514.72;1683147;85;20955;-85
2021/08/15 09:43:23;;;;;;;6.75;5.47;;;;;;;28.29;37.73;101510.69;1683242;85;21475;-73
2021/08/15 09:45:54;;;;;;;6.95;5.55;;;;;;;28.36;37.14;101506.22;1682196;85;21136;-79
2021/08/15 09:48:35;;;;;;;;;;;;;;;28.37;37.40;101504.67;1685735;85;20964;-74
2021/08/15 09:51:14;;;;;;;12.07;8.55;;;;;;;28.45;37.60;101506.88;1683182;85;20526;-77
2021/08/15 09:53:58;;;;;;;9.78;7.62;;;;;;;28.49;36.87;101508.97;1683224;85;21020;-72
2021/08/15 09:56:36;;;;;;;8.63;6.65;;;;;;;28.51;36.71;101500.73;1683310;85;20924;-75
2021/08/15 09:59:21;;;;;;;8.88;6.25;;;;;;;29.02;36.22;101502.00;1683067;85;21112;-76
2021/08/15 10:01:52;;;;;;;6.65;5.58;;;;;;;30.26;34.63;101500.43;1683047;85;21022;-76
2021/08/15 10:04:19;;;;;;;9.73;5.50;;;;;;;31.23;32.46;101502.95;1683433;85;21054;-74
2021/08/15 10:06:51;;;;;;;7.50;4.92;;;;;;;32.04;31.59;101497.05;1657642;85;20955;-74
2021/08/15 10:09:25;;;;;;;7.12;4.85;;;;;;;33.12;29.27;101498.08;1683412;85;21416;-83
2021/08/15 10:11:52;;;;;;;6.65;4.95;;;;;;;33.53;28.51;101491.32;1682989;85;21174;-74
2021/08/15 10:14:19;;;;;;;7.00;5.00;;;;;;;34.04;27.84;101484.45;1683036;85;20987;-76
2021/08/15 10:17:07;;;;;;;8.50;4.75;;;;;;;34.59;27.65;101482.10;1683095;85;20979;-76
2021/08/15 10:19:40;;;;;;;12.85;5.08;;;;;;;35.50;27.00;101483.27;1683212;85;20911;-78
2021/08/15 10:22:07;;;;;;;11.57;5.22;;;;;;;36.51;25.59;101471.73;1683037;85;21039;-76
2021/08/15 10:24:48;;;;;;;8.38;5.00;;;;;;;36.84;24.87;101474.83;1683564;85;21709;-77
2021/08/15 10:27:43;;;;;;;6.90;5.15;;;;;;;36.76;24.68;101467.18;1658273;85;20924;-78
2021/08/15 10:30:24;;;;;;;5.92;4.85;;;;;;;36.28;25.09;101461.20;1683275;85;21034;-76
2021/08/15 10:33:05;;;;;;;8.47;5.47;;;;;;;36.58;25.14;101460.22;1683437;85;20971;-74
2021/08/15 10:35:33;;;;;;;5.92;4.85;;;;;;;35.73;24.63;101466.11;1683282;85;20992;-81
2021/08/15 10:38:29;;;;;;;8.23;4.97;;;;;;;34.06;26.35;101460.77;1683379;85;21808;-75
2021/08/15 10:40:58;;;;;;;6.15;4.95;;;;;;;33.22;27.73;101459.30;1671122;85;21017;-72
2021/08/15 10:43:31;;;;;;;7.25;4.72;;;;;;;32.61;28.33;101454.70;1657514;85;21494;-75
2021/08/15 10:46:18;;;;;;;5.72;4.75;;;;;;;31.91;29.69;101455.02;1683174;85;20892;-77
2021/08/15 10:49:04;;;;;;;6.08;4.87;;;;;;;31.58;29.89;101454.53;1683056;85;21016;-73
2021/08/15 10:51:51;;;;;;;9.68;4.85;;;;;;;31.23;30.69;101447.98;1683016;85;21184;-75
2021/08/15 10:54:33;;;;;;;6.45;4.22;;;;;;;30.98;31.02;101440.42;1683040;85;20884;-75
2021/08/15 10:57:03;;;;;;;6.78;4.60;;;;;;;30.76;31.41;101435.89;1683128;85;21019;-73
2021/08/15 10:59:41;;;;;;;6.22;4.83;;;;;;;30.57;31.36;101438.95;1683230;85;21474;-73
2021/08/15 11:02:20;;;;;;;7.50;4.83;;;;;;;30.54;31.63;101433.22;1684411;85;20951;-76
2021/08/15 11:05:02;;;;;;;5.92;4.35;;;;;;;30.76;32.25;101436.68;1657908;85;22148;-75
2021/08/15 11:07:41;;;;;;;5.13;4.27;;;;;;;30.94;31.60;101427.42;1683724;85;21091;-76
2021/08/15 11:10:12;;;;;;;8.40;4.97;;;;;;;30.75;31.75;101424.85;1683700;85;21514;-79
2021/08/15 11:13:15;;;;;;;6.28;4.53;;;;;;;30.65;32.62;101424.49;1683033;85;20999;-81
2021/08/15 11:15:44;;;;;;;7.30;4.58;;;;;;;30.70;32.64;101422.80;1683573;85;20892;-77
2021/08/15 11:18:14;;;;;;;5.17;3.95;;;;;;;30.74;32.66;101424.54;1683023;85;21233;-76
2021/08/15 11:20:51;;;;;;;8.43;4.72;;;;;;;30.67;32.44;101413.86;1683032;85;21497;-71
2021/08/15 11:23:26;;;;;;;10.08;4.67;;;;;;;30.49;32.81;101419.11;1683137;85;21624;-77
2021/08/15 11:25:53;;;;;;;7.37;4.83;;;;;;;30.37;32.88;101424.80;1657417;85;20968;-79
2021/08/15 11:28:21;;;;;;;5.55;4.72;;;;;;;30.52;33.15;101417.86;1683154;85;21045;-77
2021/08/15 11:30:54;;;;;;;5.60;4.22;;;;;;;30.71;32.91;101416.93;1682953;85;21160;-76
2021/08/15 11:33:22;;;;;;;4.78;4.28;;;;;;;30.92;32.55;101410.70;1683132;85;20972;-78